sensor_id;sensor_type;location;lat;lon;timestamp;pressure;altitude;pressure_sealevel;temperature;humidity
47811;BME280;33575;52.600;7.318;2023-09-19T00:01:28;100386.50;;;15.61;96.68
47811;BME280;33575;52.600;7.318;2023-09-19T00:03:58;100375.86;;;15.24;97.34
47811;BME280;33575;52.600;7.318;2023-09-19T00:06:29;100378.16;;;15.36;98.15
47811;BME280;33575;52.600;7.318;2023-09-19T00:08:59;100377.79;;;15.26;97.79
47811;BME280;33575;52.600;7.318;2023-09-19T00:11:29;100382.28;;;15.31;98.68
47811;BME280;33575;52.600;7.318;2023-09-19T00:13:59;100373.71;;;15.38;98.51
47811;BME280;33575;52.600;7.318;2023-09-19T00:16:30;100366.38;;;15.41;99.24
47811;BME280;33575;52.600;7.318;2023-09-19T00:19:00;100368.17;;;15.35;100.00
47811;BME280;33575;52.600;7.318;2023-09-19T00:21:31;100363.54;;;15.41;99.75
47811;BME280;33575;52.600;7.318;2023-09-19T00:24:01;100367.07;;;15.36;100.00
47811;BME280;33575;52.600;7.318;2023-09-19T00:26:32;100378.01;;;15.44;100.00
47811;BME280;33575;52.600;7.318;2023-09-19T00:29:02;100380.17;;;15.42;100.00
47811;BME280;33575;52.600;7.318;2023-09-19T00:31:32;100387.99;;;15.48;100.00
47811;BME280;33575;52.600;7.318;2023-09-19T00:34:03;100385.58;;;15.47;99.02
47811;BME280;33575;52.600;7.318;2023-09-19T00:36:33;100384.28;;;15.50;99.88
47811;BME280;33575;52.600;7.318;2023-09-19T00:39:03;100387.89;;;15.38;99.75
47811;BME280;33575;52.600;7.318;2023-09-19T00:41:33;100389.76;;;15.40;100.00
47811;BME280;33575;52.600;7.318;2023-09-19T00:44:04;100391.90;;;15.49;99.83
47811;BME280;33575;52.600;7.318;2023-09-19T00:46:35;100393.51;;;15.51;99.77
47811;BME280;33575;52.600;7.318;2023-09-19T00:49:04;100399.85;;;15.47;100.00
47811;BME280;33575;52.600;7.318;2023-09-19T00:51:35;100398.81;;;15.42;100.00
47811;BME280;33575;52.600;7.318;2023-09-19T00:54:06;100401.89;;;15.53;100.00
47811;BME280;33575;52.600;7.318;2023-09-19T00:56:35;100408.03;;;15.50;100.00
47811;BME280;33575;52.600;7.318;2023-09-19T00:59:06;100416.26;;;15.53;100.00
47811;BME280;33575;52.600;7.318;2023-09-19T01:01:36;100418.10;;;15.55;100.00
47811;BME280;33575;52.600;7.318;2023-09-19T01:04:07;100420.25;;;15.51;100.00
47811;BME280;33575;52.600;7.318;2023-09-19T01:06:37;100419.87;;;15.53;100.00
47811;BME280;33575;52.600;7.318;2023-09-19T01:09:07;100418.34;;;15.40;100.00
47811;BME280;33575;52.600;7.318;2023-09-19T01:11:42;100417.52;;;15.27;100.00
47811;BME280;33575;52.600;7.318;2023-09-19T01:14:19;100420.35;;;15.33;100.00
47811;BME280;33575;52.600;7.318;2023-09-19T01:16:44;100423.44;;;15.46;100.00
47811;BME280;33575;52.600;7.318;2023-09-19T01:19:24;100427.36;;;15.50;100.00
47811;BME280;33575;52.600;7.318;2023-09-19T01:21:48;100425.04;;;15.61;100.00
47811;BME280;33575;52.600;7.318;2023-09-19T01:24:25;100425.73;;;15.53;100.00
47811;BME280;33575;52.600;7.318;2023-09-19T01:26:56;100428.50;;;15.60;100.00
47811;BME280;33575;52.600;7.318;2023-09-19T01:29:25;100427.75;;;15.62;100.00
47811;BME280;33575;52.600;7.318;2023-09-19T01:31:43;100427.04;;;15.65;100.00
47811;BME280;33575;52.600;7.318;2023-09-19T01:34:11;100432.55;;;15.64;100.00
47811;BME280;33575;52.600;7.318;2023-09-19T01:36:41;100434.80;;;15.62;100.00
47811;BME280;33575;52.600;7.318;2023-09-19T01:39:12;100437.89;;;15.72;100.00
47811;BME280;33575;52.600;7.318;2023-09-19T01:41:54;100439.50;;;15.75;100.00
47811;BME280;33575;52.600;7.318;2023-09-19T01:44:17;100438.59;;;15.73;100.00
47811;BME280;33575;52.600;7.318;2023-09-19T01:46:42;100439.90;;;15.66;100.00
47811;BME280;33575;52.600;7.318;2023-09-19T01:49:22;100444.42;;;15.70;100.00
47811;BME280;33575;52.600;7.318;2023-09-19T01:51:50;100449.09;;;15.67;100.00
47811;BME280;33575;52.600;7.318;2023-09-19T01:54:18;100444.94;;;15.59;100.00
47811;BME280;33575;52.600;7.318;2023-09-19T01:56:49;100443.94;;;15.55;100.00
47811;BME280;33575;52.600;7.318;2023-09-19T01:59:20;100444.30;;;15.51;99.52
47811;BME280;33575;52.600;7.318;2023-09-19T02:01:45;100445.86;;;15.52;99.49
47811;BME280;33575;52.600;7.318;2023-09-19T02:04:15;100450.00;;;15.47;99.79
47811;BME280;33575;52.600;7.318;2023-09-19T02:06:45;100447.72;;;15.42;99.04
47811;BME280;33575;52.600;7.318;2023-09-19T02:09:16;100447.85;;;15.36;99.31
47811;BME280;33575;52.600;7.318;2023-09-19T02:11:46;100449.80;;;15.23;99.29
47811;BME280;33575;52.600;7.318;2023-09-19T02:14:16;100451.80;;;15.33;99.86
47811;BME280;33575;52.600;7.318;2023-09-19T02:16:47;100455.63;;;15.26;99.74
47811;BME280;33575;52.600;7.318;2023-09-19T02:19:17;100459.41;;;15.30;99.55
47811;BME280;33575;52.600;7.318;2023-09-19T02:21:47;100455.71;;;15.33;99.51
47811;BME280;33575;52.600;7.318;2023-09-19T02:24:18;100457.68;;;15.31;100.00
47811;BME280;33575;52.600;7.318;2023-09-19T02:26:48;100460.07;;;15.32;99.60
47811;BME280;33575;52.600;7.318;2023-09-19T02:29:18;100460.58;;;15.40;99.47
47811;BME280;33575;52.600;7.318;2023-09-19T02:31:49;100462.54;;;15.36;99.66
47811;BME280;33575;52.600;7.318;2023-09-19T02:34:19;100466.95;;;15.34;99.11
47811;BME280;33575;52.600;7.318;2023-09-19T02:36:50;100469.69;;;15.32;98.73
47811;BME280;33575;52.600;7.318;2023-09-19T02:39:20;100470.51;;;15.07;98.82
47811;BME280;33575;52.600;7.318;2023-09-19T02:41:50;100466.84;;;15.15;99.66
47811;BME280;33575;52.600;7.318;2023-09-19T02:44:21;100461.64;;;15.19;99.28
47811;BME280;33575;52.600;7.318;2023-09-19T02:46:51;100460.70;;;15.25;99.19
47811;BME280;33575;52.600;7.318;2023-09-19T02:49:21;100456.27;;;15.11;99.36
47811;BME280;33575;52.600;7.318;2023-09-19T02:51:52;100459.15;;;15.15;99.36
47811;BME280;33575;52.600;7.318;2023-09-19T02:54:22;100461.59;;;15.13;99.41
47811;BME280;33575;52.600;7.318;2023-09-19T02:56:52;100459.01;;;15.03;99.59
47811;BME280;33575;52.600;7.318;2023-09-19T02:59:23;100465.80;;;14.96;99.31
47811;BME280;33575;52.600;7.318;2023-09-19T03:01:53;100470.65;;;14.97;99.86
47811;BME280;33575;52.600;7.318;2023-09-19T03:04:23;100475.05;;;14.97;100.00
47811;BME280;33575;52.600;7.318;2023-09-19T03:06:54;100472.61;;;14.95;99.69
47811;BME280;33575;52.600;7.318;2023-09-19T03:09:24;100472.90;;;14.97;99.84
47811;BME280;33575;52.600;7.318;2023-09-19T03:11:55;100481.43;;;14.96;99.79
47811;BME280;33575;52.600;7.318;2023-09-19T03:14:25;100486.46;;;15.02;99.77
47811;BME280;33575;52.600;7.318;2023-09-19T03:16:56;100481.34;;;15.03;99.76
47811;BME280;33575;52.600;7.318;2023-09-19T03:19:26;100476.14;;;15.05;99.77
47811;BME280;33575;52.600;7.318;2023-09-19T03:21:56;100481.79;;;15.06;99.61
47811;BME280;33575;52.600;7.318;2023-09-19T03:24:26;100486.73;;;15.12;99.64
47811;BME280;33575;52.600;7.318;2023-09-19T03:26:57;100486.46;;;15.05;99.54
47811;BME280;33575;52.600;7.318;2023-09-19T03:29:27;100490.97;;;14.83;100.00
47811;BME280;33575;52.600;7.318;2023-09-19T03:31:58;100489.10;;;14.86;100.00
47811;BME280;33575;52.600;7.318;2023-09-19T03:34:28;100493.73;;;14.92;99.95
47811;BME280;33575;52.600;7.318;2023-09-19T03:36:58;100490.88;;;14.93;100.00
47811;BME280;33575;52.600;7.318;2023-09-19T03:39:29;100498.88;;;14.87;100.00
47811;BME280;33575;52.600;7.318;2023-09-19T03:41:59;100492.90;;;14.74;100.00
47811;BME280;33575;52.600;7.318;2023-09-19T03:44:29;100490.68;;;14.89;100.00
47811;BME280;33575;52.600;7.318;2023-09-19T03:47:00;100495.43;;;14.88;100.00
47811;BME280;33575;52.600;7.318;2023-09-19T03:49:30;100492.09;;;14.82;100.00
47811;BME280;33575;52.600;7.318;2023-09-19T03:52:00;100487.79;;;14.86;100.00
47811;BME280;33575;52.600;7.318;2023-09-19T03:54:31;100484.89;;;14.85;100.00
47811;BME280;33575;52.600;7.318;2023-09-19T03:57:01;100482.29;;;14.72;100.00
47811;BME280;33575;52.600;7.318;2023-09-19T03:59:32;100466.12;;;14.82;100.00
47811;BME280;33575;52.600;7.318;2023-09-19T04:02:02;100470.14;;;14.82;100.00
47811;BME280;33575;52.600;7.318;2023-09-19T04:04:32;100473.37;;;14.65;100.00
47811;BME280;33575;52.600;7.318;2023-09-19T04:07:03;100488.58;;;14.75;100.00
47811;BME280;33575;52.600;7.318;2023-09-19T04:09:33;100502.84;;;14.65;100.00
47811;BME280;33575;52.600;7.318;2023-09-19T04:12:04;100499.59;;;14.72;100.00
47811;BME280;33575;52.600;7.318;2023-09-19T04:14:34;100496.86;;;14.67;100.00
47811;BME280;33575;52.600;7.318;2023-09-19T04:17:04;100494.03;;;14.65;100.00
47811;BME280;33575;52.600;7.318;2023-09-19T04:19:35;100498.18;;;14.65;100.00
47811;BME280;33575;52.600;7.318;2023-09-19T04:22:05;100496.16;;;14.57;100.00
47811;BME280;33575;52.600;7.318;2023-09-19T04:24:35;100495.52;;;14.60;100.00
47811;BME280;33575;52.600;7.318;2023-09-19T04:27:06;100503.06;;;14.55;100.00
47811;BME280;33575;52.600;7.318;2023-09-19T04:29:36;100500.40;;;14.64;100.00
47811;BME280;33575;52.600;7.318;2023-09-19T04:32:07;100503.00;;;14.62;100.00
47811;BME280;33575;52.600;7.318;2023-09-19T04:34:37;100504.03;;;14.62;100.00
47811;BME280;33575;52.600;7.318;2023-09-19T04:37:07;100507.69;;;14.56;100.00
47811;BME280;33575;52.600;7.318;2023-09-19T04:39:37;100519.88;;;14.57;100.00
47811;BME280;33575;52.600;7.318;2023-09-19T04:42:08;100518.89;;;14.67;100.00
47811;BME280;33575;52.600;7.318;2023-09-19T04:44:38;100521.56;;;14.60;100.00
47811;BME280;33575;52.600;7.318;2023-09-19T04:47:09;100528.42;;;14.39;100.00
47811;BME280;33575;52.600;7.318;2023-09-19T04:49:39;100530.36;;;14.47;100.00
47811;BME280;33575;52.600;7.318;2023-09-19T04:52:09;100534.44;;;14.45;100.00
47811;BME280;33575;52.600;7.318;2023-09-19T04:54:40;100534.77;;;14.50;100.00
47811;BME280;33575;52.600;7.318;2023-09-19T04:57:10;100531.66;;;14.46;100.00
47811;BME280;33575;52.600;7.318;2023-09-19T04:59:41;100542.51;;;14.49;100.00
47811;BME280;33575;52.600;7.318;2023-09-19T05:02:11;100545.82;;;14.54;100.00
47811;BME280;33575;52.600;7.318;2023-09-19T05:04:41;100547.22;;;14.52;99.88
47811;BME280;33575;52.600;7.318;2023-09-19T05:07:12;100538.31;;;14.42;99.73
47811;BME280;33575;52.600;7.318;2023-09-19T05:09:42;100534.56;;;14.29;100.00
47811;BME280;33575;52.600;7.318;2023-09-19T05:12:12;100536.01;;;14.41;99.76
47811;BME280;33575;52.600;7.318;2023-09-19T05:14:43;100538.53;;;14.42;99.16
47811;BME280;33575;52.600;7.318;2023-09-19T05:17:13;100538.88;;;14.35;100.00
47811;BME280;33575;52.600;7.318;2023-09-19T05:19:43;100535.08;;;14.37;99.41
47811;BME280;33575;52.600;7.318;2023-09-19T05:22:14;100531.92;;;14.36;99.69
47811;BME280;33575;52.600;7.318;2023-09-19T05:24:44;100530.48;;;14.26;99.18
47811;BME280;33575;52.600;7.318;2023-09-19T05:27:15;100540.84;;;14.28;99.49
47811;BME280;33575;52.600;7.318;2023-09-19T05:29:45;100537.86;;;14.24;98.28
47811;BME280;33575;52.600;7.318;2023-09-19T05:32:16;100540.27;;;14.21;98.71
47811;BME280;33575;52.600;7.318;2023-09-19T05:34:46;100542.72;;;14.02;100.00
47811;BME280;33575;52.600;7.318;2023-09-19T05:37:16;100547.31;;;14.20;98.84
47811;BME280;33575;52.600;7.318;2023-09-19T05:39:46;100553.80;;;14.13;98.67
47811;BME280;33575;52.600;7.318;2023-09-19T05:42:17;100562.02;;;14.18;98.76
47811;BME280;33575;52.600;7.318;2023-09-19T05:44:47;100558.62;;;14.01;98.53
47811;BME280;33575;52.600;7.318;2023-09-19T05:47:18;100558.85;;;13.95;98.51
47811;BME280;33575;52.600;7.318;2023-09-19T05:49:48;100564.34;;;13.97;99.25
47811;BME280;33575;52.600;7.318;2023-09-19T05:52:18;100565.75;;;13.78;99.61
47811;BME280;33575;52.600;7.318;2023-09-19T05:54:49;100567.03;;;13.67;99.38
47811;BME280;33575;52.600;7.318;2023-09-19T05:57:19;100576.65;;;13.86;98.53
47811;BME280;33575;52.600;7.318;2023-09-19T05:59:49;100569.24;;;13.79;98.58
47811;BME280;33575;52.600;7.318;2023-09-19T06:02:20;100570.20;;;13.85;98.92
47811;BME280;33575;52.600;7.318;2023-09-19T06:04:50;100563.58;;;13.71;97.74
47811;BME280;33575;52.600;7.318;2023-09-19T06:07:21;100560.71;;;13.76;98.57
47811;BME280;33575;52.600;7.318;2023-09-19T06:09:51;100562.73;;;13.67;97.54
47811;BME280;33575;52.600;7.318;2023-09-19T06:12:21;100562.28;;;13.69;97.93
47811;BME280;33575;52.600;7.318;2023-09-19T06:14:52;100568.04;;;13.60;98.76
47811;BME280;33575;52.600;7.318;2023-09-19T06:17:22;100567.01;;;13.61;99.19
47811;BME280;33575;52.600;7.318;2023-09-19T06:19:53;100566.39;;;13.61;97.91
47811;BME280;33575;52.600;7.318;2023-09-19T06:22:23;100573.73;;;13.62;98.08
47811;BME280;33575;52.600;7.318;2023-09-19T06:24:53;100584.74;;;13.72;97.96
47811;BME280;33575;52.600;7.318;2023-09-19T06:27:24;100593.20;;;13.75;98.94
47811;BME280;33575;52.600;7.318;2023-09-19T06:29:54;100595.36;;;13.68;98.15
47811;BME280;33575;52.600;7.318;2023-09-19T06:32:27;100591.06;;;13.71;97.30
47811;BME280;33575;52.600;7.318;2023-09-19T06:34:55;100598.12;;;13.84;97.64
47811;BME280;33575;52.600;7.318;2023-09-19T06:37:27;100592.93;;;13.74;97.37
47811;BME280;33575;52.600;7.318;2023-09-19T06:39:56;100604.33;;;13.88;97.37
47811;BME280;33575;52.600;7.318;2023-09-19T06:42:28;100599.23;;;13.81;97.69
47811;BME280;33575;52.600;7.318;2023-09-19T06:44:57;100607.76;;;13.97;96.95
47811;BME280;33575;52.600;7.318;2023-09-19T06:47:27;100609.35;;;13.82;97.06
47811;BME280;33575;52.600;7.318;2023-09-19T06:49:57;100608.65;;;13.89;97.47
47811;BME280;33575;52.600;7.318;2023-09-19T06:52:28;100611.90;;;13.84;98.10
47811;BME280;33575;52.600;7.318;2023-09-19T06:54:58;100601.90;;;13.83;97.76
47811;BME280;33575;52.600;7.318;2023-09-19T06:57:28;100611.10;;;13.99;97.86
47811;BME280;33575;52.600;7.318;2023-09-19T06:59:59;100611.31;;;13.96;97.02
47811;BME280;33575;52.600;7.318;2023-09-19T07:02:29;100618.64;;;13.91;96.41
47811;BME280;33575;52.600;7.318;2023-09-19T07:04:59;100628.32;;;13.84;96.36
47811;BME280;33575;52.600;7.318;2023-09-19T07:07:30;100615.47;;;13.70;96.06
47811;BME280;33575;52.600;7.318;2023-09-19T07:10:00;100617.86;;;13.93;96.35
47811;BME280;33575;52.600;7.318;2023-09-19T07:12:30;100614.24;;;14.02;96.38
47811;BME280;33575;52.600;7.318;2023-09-19T07:15:01;100606.14;;;14.03;96.60
47811;BME280;33575;52.600;7.318;2023-09-19T07:17:31;100611.25;;;14.17;97.41
47811;BME280;33575;52.600;7.318;2023-09-19T07:20:02;100619.81;;;14.29;96.66
47811;BME280;33575;52.600;7.318;2023-09-19T07:22:32;100613.63;;;14.20;95.88
47811;BME280;33575;52.600;7.318;2023-09-19T07:25:02;100619.70;;;14.18;94.77
47811;BME280;33575;52.600;7.318;2023-09-19T07:27:33;100621.05;;;14.11;96.22
47811;BME280;33575;52.600;7.318;2023-09-19T07:30:04;100619.15;;;14.18;95.79
47811;BME280;33575;52.600;7.318;2023-09-19T07:32:34;100622.36;;;14.27;95.53
47811;BME280;33575;52.600;7.318;2023-09-19T07:35:05;100618.04;;;14.31;95.10
47811;BME280;33575;52.600;7.318;2023-09-19T07:37:35;100621.46;;;14.25;94.64
47811;BME280;33575;52.600;7.318;2023-09-19T07:40:06;100616.35;;;14.34;96.22
47811;BME280;33575;52.600;7.318;2023-09-19T07:42:35;100618.87;;;14.29;95.94
47811;BME280;33575;52.600;7.318;2023-09-19T07:45:06;100620.77;;;14.28;95.24
47811;BME280;33575;52.600;7.318;2023-09-19T07:47:36;100619.06;;;14.24;95.00
47811;BME280;33575;52.600;7.318;2023-09-19T07:50:06;100615.42;;;14.51;95.96
47811;BME280;33575;52.600;7.318;2023-09-19T07:52:36;100628.62;;;14.59;96.11
47811;BME280;33575;52.600;7.318;2023-09-19T07:55:07;100629.34;;;14.48;95.25
47811;BME280;33575;52.600;7.318;2023-09-19T07:57:37;100630.40;;;14.56;96.04
47811;BME280;33575;52.600;7.318;2023-09-19T08:00:08;100635.47;;;14.77;94.68
47811;BME280;33575;52.600;7.318;2023-09-19T08:02:38;100633.66;;;14.63;93.64
47811;BME280;33575;52.600;7.318;2023-09-19T08:05:09;100628.98;;;14.77;93.83
47811;BME280;33575;52.600;7.318;2023-09-19T08:07:39;100633.45;;;14.70;94.97
47811;BME280;33575;52.600;7.318;2023-09-19T08:10:09;100628.27;;;14.82;94.30
47811;BME280;33575;52.600;7.318;2023-09-19T08:12:39;100629.73;;;14.94;94.51
47811;BME280;33575;52.600;7.318;2023-09-19T08:15:10;100627.93;;;14.97;95.20
47811;BME280;33575;52.600;7.318;2023-09-19T08:17:40;100633.03;;;14.89;93.79
47811;BME280;33575;52.600;7.318;2023-09-19T08:20:11;100633.79;;;14.89;94.79
47811;BME280;33575;52.600;7.318;2023-09-19T08:22:41;100638.29;;;14.98;95.79
47811;BME280;33575;52.600;7.318;2023-09-19T08:25:11;100634.71;;;15.02;95.33
47811;BME280;33575;52.600;7.318;2023-09-19T08:27:41;100635.91;;;15.04;95.10
47811;BME280;33575;52.600;7.318;2023-09-19T08:30:12;100632.23;;;15.10;93.46
47811;BME280;33575;52.600;7.318;2023-09-19T08:32:42;100635.19;;;15.17;94.88
47811;BME280;33575;52.600;7.318;2023-09-19T08:35:12;100640.10;;;15.26;94.75
47811;BME280;33575;52.600;7.318;2023-09-19T08:37:43;100635.68;;;15.26;94.45
47811;BME280;33575;52.600;7.318;2023-09-19T08:40:13;100647.49;;;15.20;95.50
47811;BME280;33575;52.600;7.318;2023-09-19T08:42:48;100641.40;;;15.35;92.92
47811;BME280;33575;52.600;7.318;2023-09-19T08:45:14;100648.40;;;15.37;94.47
47811;BME280;33575;52.600;7.318;2023-09-19T08:47:46;100650.11;;;15.29;94.84
47811;BME280;33575;52.600;7.318;2023-09-19T08:50:19;100645.44;;;15.26;94.54
47811;BME280;33575;52.600;7.318;2023-09-19T08:52:46;100648.04;;;15.37;93.82
47811;BME280;33575;52.600;7.318;2023-09-19T08:55:16;100632.65;;;15.24;93.20
47811;BME280;33575;52.600;7.318;2023-09-19T08:57:46;100639.28;;;15.34;94.66
47811;BME280;33575;52.600;7.318;2023-09-19T09:00:16;100638.16;;;15.38;94.61
47811;BME280;33575;52.600;7.318;2023-09-19T09:02:47;100643.85;;;15.41;94.55
47811;BME280;33575;52.600;7.318;2023-09-19T09:05:17;100639.51;;;15.53;94.26
47811;BME280;33575;52.600;7.318;2023-09-19T09:07:47;100642.03;;;15.35;93.27
47811;BME280;33575;52.600;7.318;2023-09-19T09:10:18;100652.83;;;15.38;92.40
47811;BME280;33575;52.600;7.318;2023-09-19T09:12:48;100649.48;;;15.53;93.28
47811;BME280;33575;52.600;7.318;2023-09-19T09:15:19;100647.47;;;15.62;93.14
47811;BME280;33575;52.600;7.318;2023-09-19T09:17:50;100637.59;;;15.64;92.79
47811;BME280;33575;52.600;7.318;2023-09-19T09:20:19;100643.35;;;15.83;94.11
47811;BME280;33575;52.600;7.318;2023-09-19T09:22:52;100639.21;;;15.71;92.86
47811;BME280;33575;52.600;7.318;2023-09-19T09:25:19;100636.20;;;15.71;92.36
47811;BME280;33575;52.600;7.318;2023-09-19T09:27:58;100636.86;;;15.85;92.35
47811;BME280;33575;52.600;7.318;2023-09-19T09:35:20;100645.62;;;15.99;90.93
47811;BME280;33575;52.600;7.318;2023-09-19T09:37:59;100642.01;;;16.10;91.23
47811;BME280;33575;52.600;7.318;2023-09-19T09:40:21;100647.94;;;15.98;90.27
47811;BME280;33575;52.600;7.318;2023-09-19T09:42:51;100641.73;;;16.03;89.87
47811;BME280;33575;52.600;7.318;2023-09-19T09:45:23;100640.25;;;15.95;90.52
47811;BME280;33575;52.600;7.318;2023-09-19T09:47:52;100632.70;;;16.14;90.86
47811;BME280;33575;52.600;7.318;2023-09-19T09:50:25;100631.21;;;16.21;89.49
47811;BME280;33575;52.600;7.318;2023-09-19T09:52:52;100638.78;;;16.48;89.08
47811;BME280;33575;52.600;7.318;2023-09-19T09:55:23;100639.11;;;16.33;88.10
47811;BME280;33575;52.600;7.318;2023-09-19T10:00:23;100638.62;;;16.45;87.15
47811;BME280;33575;52.600;7.318;2023-09-19T10:02:54;100650.18;;;16.37;87.28
47811;BME280;33575;52.600;7.318;2023-09-19T10:05:24;100645.61;;;16.42;90.40
47811;BME280;33575;52.600;7.318;2023-09-19T10:07:55;100637.41;;;16.40;88.01
47811;BME280;33575;52.600;7.318;2023-09-19T10:10:30;100641.74;;;16.50;86.99
47811;BME280;33575;52.600;7.318;2023-09-19T10:12:59;100643.18;;;16.61;87.53
47811;BME280;33575;52.600;7.318;2023-09-19T10:15:26;100637.80;;;16.59;86.38
47811;BME280;33575;52.600;7.318;2023-09-19T10:17:56;100624.63;;;16.64;89.10
47811;BME280;33575;52.600;7.318;2023-09-19T10:20:26;100631.18;;;16.75;87.26
47811;BME280;33575;52.600;7.318;2023-09-19T10:22:57;100627.73;;;16.72;86.49
47811;BME280;33575;52.600;7.318;2023-09-19T10:25:27;100628.02;;;16.67;89.31
47811;BME280;33575;52.600;7.318;2023-09-19T10:27:58;100622.40;;;17.06;87.78
47811;BME280;33575;52.600;7.318;2023-09-19T10:30:29;100632.85;;;17.07;88.11
47811;BME280;33575;52.600;7.318;2023-09-19T10:33:01;100629.19;;;17.39;86.41
47811;BME280;33575;52.600;7.318;2023-09-19T10:35:28;100629.25;;;17.31;88.23
47811;BME280;33575;52.600;7.318;2023-09-19T10:38:01;100630.09;;;17.37;86.34
47811;BME280;33575;52.600;7.318;2023-09-19T10:40:28;100624.67;;;17.36;85.84
47811;BME280;33575;52.600;7.318;2023-09-19T10:43:02;100630.37;;;17.50;84.25
47811;BME280;33575;52.600;7.318;2023-09-19T10:45:30;100629.70;;;17.64;85.04
47811;BME280;33575;52.600;7.318;2023-09-19T10:47:59;100630.73;;;17.68;86.82
47811;BME280;33575;52.600;7.318;2023-09-19T10:50:33;100626.79;;;17.54;84.18
47811;BME280;33575;52.600;7.318;2023-09-19T10:53:03;100630.72;;;17.58;82.61
47811;BME280;33575;52.600;7.318;2023-09-19T10:55:32;100641.29;;;17.61;86.52
47811;BME280;33575;52.600;7.318;2023-09-19T10:58:01;100637.81;;;17.64;83.41
47811;BME280;33575;52.600;7.318;2023-09-19T11:05:32;100626.25;;;17.78;84.53
47811;BME280;33575;52.600;7.318;2023-09-19T11:08:02;100632.30;;;18.01;84.13
47811;BME280;33575;52.600;7.318;2023-09-19T11:20:33;100622.60;;;17.86;80.77
47811;BME280;33575;52.600;7.318;2023-09-19T11:25:42;100616.53;;;17.57;81.06
47811;BME280;33575;52.600;7.318;2023-09-19T11:30:35;100614.61;;;17.90;82.04
47811;BME280;33575;52.600;7.318;2023-09-19T11:38:05;100598.09;;;18.01;81.88
47811;BME280;33575;52.600;7.318;2023-09-19T11:40:36;100593.83;;;18.16;82.71
47811;BME280;33575;52.600;7.318;2023-09-19T11:48:06;100599.78;;;17.98;79.60
47811;BME280;33575;52.600;7.318;2023-09-19T11:50:37;100595.98;;;18.04;82.36
47811;BME280;33575;52.600;7.318;2023-09-19T11:53:07;100582.58;;;18.02;81.23
47811;BME280;33575;52.600;7.318;2023-09-19T11:55:37;100588.95;;;18.03;81.07
47811;BME280;33575;52.600;7.318;2023-09-19T11:58:08;100580.95;;;18.18;84.41
47811;BME280;33575;52.600;7.318;2023-09-19T12:00:38;100581.16;;;18.40;82.49
47811;BME280;33575;52.600;7.318;2023-09-19T12:03:10;100579.71;;;18.56;83.46
47811;BME280;33575;52.600;7.318;2023-09-19T12:05:39;100577.47;;;18.50;84.63
47811;BME280;33575;52.600;7.318;2023-09-19T12:08:09;100579.48;;;18.28;82.21
47811;BME280;33575;52.600;7.318;2023-09-19T12:10:45;100585.06;;;18.00;82.45
47811;BME280;33575;52.600;7.318;2023-09-19T12:13:09;100583.93;;;18.02;82.12
47811;BME280;33575;52.600;7.318;2023-09-19T12:15:39;100581.65;;;18.01;81.92
47811;BME280;33575;52.600;7.318;2023-09-19T12:18:10;100578.81;;;17.76;84.14
47811;BME280;33575;52.600;7.318;2023-09-19T12:20:44;100572.00;;;17.93;83.44
47811;BME280;33575;52.600;7.318;2023-09-19T12:23:13;100560.57;;;17.92;83.69
47811;BME280;33575;52.600;7.318;2023-09-19T12:25:42;100566.18;;;17.94;81.46
47811;BME280;33575;52.600;7.318;2023-09-19T12:28:12;100562.20;;;17.90;84.21
47811;BME280;33575;52.600;7.318;2023-09-19T12:30:41;100572.30;;;17.94;85.37
47811;BME280;33575;52.600;7.318;2023-09-19T12:33:16;100567.56;;;18.04;81.86
47811;BME280;33575;52.600;7.318;2023-09-19T12:35:41;100572.71;;;18.13;84.21
47811;BME280;33575;52.600;7.318;2023-09-19T12:40:42;100557.11;;;18.10;82.47
47811;BME280;33575;52.600;7.318;2023-09-19T12:43:12;100570.22;;;18.16;82.35
47811;BME280;33575;52.600;7.318;2023-09-19T12:45:43;100564.95;;;18.23;81.55
47811;BME280;33575;52.600;7.318;2023-09-19T12:48:18;100560.70;;;18.17;83.45
47811;BME280;33575;52.600;7.318;2023-09-19T12:55:44;100550.71;;;18.02;82.40
47811;BME280;33575;52.600;7.318;2023-09-19T12:58:14;100541.53;;;18.08;83.08
47811;BME280;33575;52.600;7.318;2023-09-19T13:00:45;100555.50;;;18.23;82.79
47811;BME280;33575;52.600;7.318;2023-09-19T13:03:17;100548.05;;;18.25;82.65
47811;BME280;33575;52.600;7.318;2023-09-19T13:05:49;100544.35;;;18.25;82.95
47811;BME280;33575;52.600;7.318;2023-09-19T13:08:19;100544.73;;;18.35;84.37
47811;BME280;33575;52.600;7.318;2023-09-19T13:13:23;100543.01;;;18.23;81.85
47811;BME280;33575;52.600;7.318;2023-09-19T13:15:52;100545.95;;;18.33;81.51
47811;BME280;33575;52.600;7.318;2023-09-19T13:18:16;100545.79;;;18.21;81.55
47811;BME280;33575;52.600;7.318;2023-09-19T13:23:26;100545.62;;;18.22;82.33
47811;BME280;33575;52.600;7.318;2023-09-19T13:25:47;100530.37;;;18.30;83.92
47811;BME280;33575;52.600;7.318;2023-09-19T13:28:17;100521.81;;;18.25;81.88
47811;BME280;33575;52.600;7.318;2023-09-19T13:30:47;100538.43;;;18.29;82.74
47811;BME280;33575;52.600;7.318;2023-09-19T13:33:17;100532.25;;;18.13;82.14
47811;BME280;33575;52.600;7.318;2023-09-19T13:35:48;100534.19;;;18.35;82.97
47811;BME280;33575;52.600;7.318;2023-09-19T13:38:18;100537.86;;;18.34;82.00
47811;BME280;33575;52.600;7.318;2023-09-19T13:40:49;100541.39;;;18.18;82.93
47811;BME280;33575;52.600;7.318;2023-09-19T13:43:19;100547.08;;;18.07;82.97
47811;BME280;33575;52.600;7.318;2023-09-19T13:45:49;100539.27;;;18.02;80.54
47811;BME280;33575;52.600;7.318;2023-09-19T13:48:19;100540.57;;;18.17;81.88
47811;BME280;33575;52.600;7.318;2023-09-19T13:50:50;100539.56;;;18.17;82.02
47811;BME280;33575;52.600;7.318;2023-09-19T13:53:20;100536.64;;;18.13;81.97